Destinations Mihail Kogalniceanu International Airport

Mihail Kogalniceanu International Airport (LRCK / CND)

Flights to Mihail Kogalniceanu International Airport

Flight number From ETE Dispatch
SPY-522 EHGG Groningen Airport Eelde 02:50

Flights from Mihail Kogalniceanu International Airport

Flight number To ETE Dispatch
SPY-523 EHGG Groningen Airport Eelde
About

Mihail Kogalniceanu International Airport facts

Mihail Kogalniceanu International Airport is located in Constanta at an elevation of 107.6 meters or 353 feet.

Currently, Speedy Airlines serves 2 flights to and from Mihail Kogalniceanu International Airport.

Detailed airport info

Route map

Weather

Current weather

METAR

METAR

Metar data retrieved Sunday, 21 July 2024 at 19:25 UTC

LRCK 211900Z 17010KT CAVOK 26/19 Q1008 NOSIG
Wind Temperature
10 kt 26c